Latest Weather Observations for Avalon

IDV60801

Issued at 9:35 am EST Tuesday 2 September 2014 (issued every 30 minutes, with the page automatically refreshed every 10 minutes)

About weather observations | Map of weather stations | Latest weather observations for VIC | Other Formats
Station Details ID: 087113 Name: AVALON AIRPORT Lat: -38.03 Lon: 144.48 Height: 10.6 m
Data from the previous 72 hours. | See also: Recent months at Avalon
Date/Time
EST
Temp
°C
App
Temp
°C
Dew
Point
Rel
Hum
%
Delta-T
°C
Wind Press
QNH
hPa
Press
MSL
hPa
Rain
since 9 am
mm
Dir
 
Spd
km/h
Gust
km/h
Spd
kts
Gust
kts
02/09:30am 10.7 7.2 8.8 88 0.9 W 17 24 9 13 1019.0 1019.0 0.0
02/09:00am 8.7 4.3 7.5 92 0.6 W 20 30 11 16 1018.8 1018.8 12.8
02/08:30am 9.4 5.8 8.2 92 0.6 W 17 24 9 13 1018.4 1018.4 12.8
02/08:00am 8.8 4.8 8.4 97 0.2 W 19 24 10 13 1017.9 1017.9 12.8
02/07:30am 7.7 3.5 7.6 99 0.0 W 19 24 10 13 1017.4 1017.4 12.4
02/07:00am 7.2 3.7 7.1 99 0.0 W 15 17 8 9 1017.1 1017.1 12.4
02/06:30am 7.4 3.5 7.3 99 0.0 SW 17 20 9 11 1017.1 1017.1 12.0
02/06:00am 7.5 2.7 7.4 99 0.0 W 22 30 12 16 1016.3 1016.3 11.6
02/05:30am 6.6 2.9 6.5 99 0.0 W 15 19 8 10 1015.7 1015.7 11.4
02/05:00am 7.4 3.2 7.3 99 0.0 W 19 24 10 13 1015.3 1015.3 11.4
02/04:30am 7.8 4.8 7.7 99 0.0 W 13 17 7 9 1015.0 1015.0 11.4
02/04:00am 7.7 3.3 7.6 99 0.0 WSW 20 26 11 14 1015.0 1015.0 11.0
02/03:30am 7.5 2.7 7.2 98 0.1 W 22 28 12 15 1014.3 1014.3 10.8
02/03:00am 7.8 3.4 7.5 98 0.1 W 20 24 11 13 1014.1 1014.1 10.8
02/02:30am 7.6 3.7 7.3 98 0.1 W 17 20 9 11 1014.3 1014.3 10.6
02/02:00am 8.0 4.2 7.7 98 0.1 W 17 20 9 11 1014.0 1014.0 10.6
02/01:30am 8.1 4.0 8.0 99 0.0 W 19 24 10 13 1014.0 1014.0 10.6
02/01:00am 8.2 4.0 8.1 99 0.0 W 20 24 11 13 1013.9 1013.9 10.6
02/12:30am 8.0 5.0 7.6 97 0.2 W 13 17 7 9 1013.7 1013.7 10.4
02/12:00am 7.8 3.5 7.2 96 0.3 W 19 20 10 11 1013.5 1013.5 10.4
 
Date/Time
EST
Temp
°C
App
Temp
°C
Dew
Point
Rel
Hum
%
Delta-T
°C
Wind Press
QNH
hPa
Press
MSL
hPa
Rain
since 9 am
mm
Dir
 
Spd
km/h
Gust
km/h
Spd
kts
Gust
kts
01/11:30pm 8.4 4.0 7.6 95 0.4 W 20 28 11 15 1013.1 1013.1 10.4
01/11:00pm 7.7 3.8 7.1 96 0.3 W 17 20 9 11 1013.0 1013.0 10.4
01/10:30pm 8.0 4.9 7.2 95 0.4 WNW 13 17 7 9 1012.9 1012.9 10.4
01/10:00pm 9.0 5.7 8.2 95 0.4 W 15 17 8 9 1012.9 1012.9 10.4
01/09:30pm 9.2 5.6 8.4 95 0.4 WNW 17 20 9 11 1012.6 1012.6 10.4
01/09:00pm 9.2 6.4 8.4 95 0.4 NW 13 15 7 8 1012.4 1012.4 10.4
01/08:30pm 9.1 6.7 8.5 96 0.3 WNW 11 15 6 8 1012.0 1012.0 10.4
01/08:00pm 9.0 6.5 8.2 95 0.4 WNW 11 13 6 7 1011.7 1011.7 10.4
01/07:30pm 9.1 6.2 8.2 94 0.4 WNW 13 15 7 8 1011.4 1011.4 10.4
01/07:00pm 9.0 6.1 8.1 94 0.4 NW 13 15 7 8 1011.1 1011.1 10.4
01/06:30pm 9.1 5.0 7.9 92 0.6 W 19 24 10 13 1011.0 1011.0 10.2
01/06:00pm 9.5 6.0 7.1 85 1.1 WSW 15 20 8 11 1010.8 1010.8 10.0
01/05:49pm 9.5 5.0 6.8 83 1.3 WSW 20 32 11 17 1010.8 1010.8 9.6
01/05:30pm 9.1 2.6 6.7 85 1.1 WSW 30 52 16 28 1010.9 1010.9 8.6
01/05:29pm 9.1 3.0 6.5 84 1.2 WSW 28 52 15 28 1010.8 1010.8 8.2
01/05:17pm 11.6 8.4 10.0 90 0.8 SW 17 26 9 14 1010.0 1010.0 4.2
01/05:00pm 11.8 9.8 10.0 89 0.9 SSW 11 17 6 9 1009.5 1009.5 2.6
01/04:30pm 11.8 8.5 9.5 86 1.2 S 17 20 9 11 1009.1 1009.1 2.4
01/04:00pm 13.0 10.0 10.7 86 1.2 W 17 20 9 11 1008.8 1008.8 2.4
01/03:30pm 12.9 9.9 10.8 87 1.1 WNW 17 20 9 11 1008.4 1008.4 2.4
01/03:00pm 12.4 9.4 10.6 89 0.9 WNW 17 20 9 11 1008.4 1008.4 2.4
01/02:30pm 12.3 9.8 10.9 91 0.7 WNW 15 20 8 11 1008.3 1008.3 2.4
01/02:00pm 12.0 9.1 10.9 93 0.6 W 17 20 9 11 1008.3 1008.3 2.4
01/01:30pm 11.7 8.1 10.6 93 0.6 W 20 26 11 14 1008.7 1008.7 2.4
01/01:04pm 12.3 6.9 9.5 83 1.4 WNW 28 46 15 25 1008.8 1008.8 2.0
01/01:00pm 13.5 9.5 10.3 81 1.7 WNW 22 30 12 16 1008.6 1008.6 2.0
01/12:30pm 13.7 10.6 10.3 80 1.8 WNW 17 24 9 13 1008.5 1008.5 2.0
01/12:00pm 13.3 11.5 10.8 85 1.3 NW 11 15 6 8 1008.6 1008.6 2.0
01/11:30am 12.8 11.3 10.5 86 1.2 NW 9 11 5 6 1008.6 1008.6 2.0
01/11:00am 12.1 9.7 10.2 88 1.0 NW 13 19 7 10 1008.8 1008.8 2.0
01/10:30am 11.9 9.0 9.8 87 1.1 NNW 15 20 8 11 1008.8 1008.8 2.0
01/10:00am 11.3 9.1 9.4 88 1.0 WNW 11 17 6 9 1009.1 1009.1 1.8
01/09:30am 11.4 7.9 8.6 83 1.4 NW 17 24 9 13 1008.8 1008.8 1.2
01/09:00am 12.0 7.7 7.9 76 2.0 WNW 20 26 11 14 1009.2 1009.2 0.2
01/08:30am 12.9 10.6 7.4 69 2.7 NNW 9 11 5 6 1008.3 1008.3 0.0
01/08:00am 13.0 10.2 6.8 66 3.0 WNW 11 15 6 8 1008.6 1008.6 0.0
01/07:30am 13.7 9.4 5.3 57 3.9 N 17 20 9 11 1008.5 1008.5 0.0
01/07:00am 13.9 9.9 5.0 55 4.2 N 15 20 8 11 1008.4 1008.4 0.0
01/06:30am 13.5 11.0 4.9 56 4.0 N 7 15 4 8 1008.2 1008.2 0.0
01/06:00am 14.6 10.6 4.9 52 4.5 N 15 20 8 11 1008.0 1008.0 0.0
01/05:30am 15.2 9.8 4.6 49 4.9 N 22 32 12 17 1008.1 1008.1 0.0
01/05:00am 14.5 9.2 5.0 53 4.5 NNW 22 28 12 15 1007.9 1007.9 0.0
01/04:30am 15.2 8.4 5.1 51 4.8 N 30 41 16 22 1007.0 1007.0 0.0
01/04:00am 15.6 8.8 4.9 49 5.1 N 30 39 16 21 1006.9 1006.9 0.0
01/03:30am 15.7 8.4 5.3 50 4.9 N 33 43 18 23 1007.0 1007.0 0.0
01/03:00am 15.7 9.0 5.6 51 4.8 N 30 41 16 22 1007.7 1007.7 0.0
01/02:30am 15.8 9.5 5.7 51 4.8 N 28 41 15 22 1008.0 1008.0 0.0
01/02:00am 16.4 9.3 5.7 49 5.2 N 32 43 17 23 1008.2 1008.2 0.0
01/01:30am 16.6 9.3 5.6 48 5.3 N 33 44 18 24 1008.3 1008.3 0.0
01/01:06am 16.9 8.9 5.5 47 5.5 N 37 56 20 30 1008.6 1008.6 0.0
01/01:00am 17.1 8.3 5.4 46 5.6 N 41 56 22 30 1008.7 1008.7 0.0
01/12:51am 17.3 8.8 5.3 45 5.8 N 39 57 21 31 1008.8 1008.8 0.0
01/12:30am 17.6 10.3 5.5 45 5.9 N 33 48 18 26 1009.0 1009.0 0.0
01/12:22am 17.4 11.1 5.7 46 5.7 N 28 41 15 22 1009.1 1009.1 0.0
01/12:00am 17.0 12.9 6.2 49 5.3 NNE 17 20 9 11 1009.3 1009.3 0.0
 
Date/Time
EST
Temp
°C
App
Temp
°C
Dew
Point
Rel
Hum
%
Delta-T
°C
Wind Press
QNH
hPa
Press
MSL
hPa
Rain
since 9 am
mm
Dir
 
Spd
km/h
Gust
km/h
Spd
kts
Gust
kts
31/11:30pm 16.4 11.9 6.8 53 4.7 NNE 20 28 11 15 1009.6 1009.6 0.0
31/11:00pm 16.8 12.4 7.2 53 4.8 NNE 20 32 11 17 1009.8 1009.8 0.0
31/10:30pm 17.2 10.5 7.3 52 5.0 NNE 32 43 17 23 1009.5 1009.5 0.0
31/10:00pm 17.2 10.4 7.8 54 4.8 NNE 33 41 18 22 1009.8 1009.8 0.0
31/09:30pm 16.2 10.6 8.7 61 3.8 NE 28 33 15 18 1010.8 1010.8 0.0
31/09:00pm 16.2 11.4 8.9 62 3.8 NNE 24 35 13 19 1011.4 1011.4 0.0
31/08:30pm 16.3 11.9 9.0 62 3.8 NNE 22 28 12 15 1012.0 1012.0 0.0
31/08:00pm 16.3 11.9 9.0 62 3.8 NNE 22 28 12 15 1012.2 1012.2 0.0
31/07:30pm 16.7 11.5 8.9 60 4.0 NNE 26 33 14 18 1012.5 1012.5 0.0
31/07:00pm 16.4 12.4 9.1 62 3.8 NNE 20 28 11 15 1012.6 1012.6 0.0
31/06:30pm 16.0 12.3 9.4 65 3.4 NNE 19 22 10 12 1012.6 1012.6 0.0
31/06:00pm 16.3 13.1 8.3 59 4.1 NNE 15 19 8 10 1012.8 1012.8 0.0
31/05:30pm 18.0 13.7 8.0 52 5.1 NNE 20 28 11 15 1012.9 1012.9 0.0
31/05:00pm 18.9 14.2 7.7 48 5.7 NNE 22 30 12 16 1013.0 1013.0 0.0
31/04:30pm 19.4 14.6 7.2 45 6.2 N 22 30 12 16 1012.9 1012.9 0.0
31/04:00pm 19.9 14.6 7.0 43 6.5 N 24 37 13 20 1013.0 1013.0 0.0
31/03:30pm 20.4 14.4 7.1 42 6.8 N 28 37 15 20 1013.1 1013.1 0.0
31/03:00pm 21.0 14.7 7.3 41 7.0 N 30 39 16 21 1013.2 1013.2 0.0
31/02:30pm 22.1 15.4 7.5 39 7.6 N 32 41 17 22 1013.6 1013.6 0.0
31/02:00pm 21.3 14.4 7.2 40 7.2 N 33 43 18 23 1013.9 1013.9 0.0
31/01:30pm 22.5 15.2 7.1 37 7.9 N 35 46 19 25 1014.1 1014.1 0.0
31/01:00pm 21.9 15.4 6.6 37 7.8 NNW 30 43 16 23 1014.5 1014.5 0.0
31/12:30pm 22.6 15.4 6.0 34 8.4 NNW 33 44 18 24 1014.8 1014.8 0.0
31/12:00pm 22.0 14.1 6.3 36 7.9 NNW 37 48 20 26 1015.3 1015.3 0.0
31/11:30am 21.0 13.1 6.2 38 7.4 NNW 37 50 20 27 1015.7 1015.7 0.0
31/11:00am 21.6 14.6 6.7 38 7.6 N 33 48 18 26 1016.1 1016.1 0.0
31/10:30am 20.8 14.0 6.7 40 7.1 N 32 41 17 22 1016.3 1016.3 0.0
31/10:00am 20.2 16.4 7.6 44 6.5 N 17 30 9 16 1016.9 1016.9 0.0
31/09:30am 18.4 13.9 8.7 53 5.0 N 22 26 12 14 1017.5 1017.5 0.0
31/09:00am 14.1 12.4 9.7 75 2.3 ENE 9 11 5 6 1017.8 1017.8 0.0
31/08:30am 11.9 8.4 8.9 82 1.5 ENE 17 20 9 11 1017.9 1017.9 0.0
31/08:00am 9.6 5.8 7.5 87 1.0 ENE 17 19 9 10 1018.1 1018.1 0.0
31/07:30am 8.1 4.5 6.9 92 0.6 ENE 15 17 8 9 1018.2 1018.2 0.0
31/07:00am 6.3 2.1 5.6 95 0.3 ENE 17 19 9 10 1018.2 1018.2 0.0
31/06:30am 6.8 3.0 5.9 94 0.4 ENE 15 17 8 9 1018.2 1018.2 0.0
31/06:00am 6.6 2.0 5.7 94 0.4 NE 19 20 10 11 1018.1 1018.1 0.0
31/05:30am 6.9 3.7 6.8 99 0.0 NE 13 17 7 9 1018.0 1018.0 0.0
31/05:00am 6.4 3.8 6.3 99 0.0 NNE 9 13 5 7 1017.9 1017.9 0.0
31/04:30am 4.8 2.4 4.5 98 0.1 NE 6 9 3 5 1017.9 1017.9 0.0
31/04:00am 4.8 2.2 4.4 97 0.2 NE 7 11 4 6 1018.0 1018.0 0.0
31/03:30am 4.9 2.4 4.5 97 0.2 N 7 7 4 4 1018.3 1018.3 0.0
31/03:00am 5.2 2.8 4.5 95 0.3 WNW 6 7 3 4 1018.5 1018.5 0.0
31/02:30am 6.1 3.9 5.2 94 0.4 N 6 7 3 4 1018.7 1018.7 0.0
31/02:00am 6.3 3.6 5.6 95 0.3 NE 9 11 5 6 1018.9 1018.9 0.0
31/01:30am 5.9 3.1 5.2 95 0.3 ENE 9 13 5 7 1019.2 1019.2 0.0
31/01:00am 5.8 4.6 4.8 93 0.4 CALM 0 0 0 0 1019.4 1019.4 0.0
31/12:30am 6.8 5.7 5.1 89 0.7 CALM 0 0 0 0 1019.7 1019.7 0.0
31/12:00am 6.7 4.8 4.7 87 0.9 NNW 4 9 2 5 1020.1 1020.1 0.0
 
Date/Time
EST
Temp
°C
App
Temp
°C
Dew
Point
Rel
Hum
%
Delta-T
°C
Wind Press
QNH
hPa
Press
MSL
hPa
Rain
since 9 am
mm
Dir
 
Spd
km/h
Gust
km/h
Spd
kts
Gust
kts
30/11:30pm 8.5 6.1 6.8 89 0.8 NNE 9 11 5 6 1020.1 1020.1 0.0
30/11:00pm 6.9 5.8 4.9 87 0.9 CALM 0 0 0 0 1020.4 1020.4 0.0
30/10:30pm 9.0 6.5 6.4 84 1.2 N 9 11 5 6 1020.6 1020.6 0.0
30/10:00pm 9.3 8.9 8.1 92 0.6 CALM 0 0 0 0 1021.1 1021.1 0.0
30/09:53pm 9.2 8.7 8.0 92 0.6 CALM 0 0 0 0 1021.2 1021.2 0.0
30/09:38pm 8.8 7.4 7.3 90 0.7 NNE 4 7 2 4 1021.4 1021.4 0.0
30/09:30pm 10.0 8.4 8.8 92 0.6 N 7 9 4 5 1021.3 1021.3 0.0
30/09:00pm 9.8 7.3 8.2 90 0.8 NNW 11 11 6 6 1021.4 1021.4 0.0
30/08:30pm 10.3 8.3 8.6 89 0.8 N 9 11 5 6 1021.3 1021.3 0.0
30/08:00pm 10.9 9.5 8.7 86 1.1 NNE 6 9 3 5 1021.3 1021.3 0.0
30/07:30pm 12.2 10.8 9.0 81 1.6 NE 6 7 3 4 1021.3 1021.3 0.0
30/07:00pm 12.2 10.8 9.0 81 1.6 NNE 6 7 3 4 1021.1 1021.1 0.0
30/06:30pm 13.2 11.4 9.5 78 1.9 ENE 9 11 5 6 1021.0 1021.0 0.0
30/06:00pm 14.4 12.2 9.2 71 2.6 E 11 13 6 7 1021.1 1021.1 0.0
30/05:30pm 15.4 14.4 11.0 75 2.3 E 7 9 4 5 1021.3 1021.3 0.0
30/05:00pm 15.7 14.7 11.1 74 2.5 ESE 7 11 4 6 1021.3 1021.3 0.0
30/04:30pm 16.0 14.0 11.4 74 2.5 ESE 13 15 7 8 1021.2 1021.2 0.0
30/04:00pm 16.4 14.3 11.3 72 2.7 ESE 13 15 7 8 1021.2 1021.2 0.0
30/03:30pm 16.7 14.3 11.4 71 2.9 ESE 15 17 8 9 1021.2 1021.2 0.0
30/03:00pm 17.2 14.8 11.5 69 3.1 ESE 15 19 8 10 1021.2 1021.2 0.0
30/02:30pm 17.1 15.1 11.4 69 3.1 ESE 13 17 7 9 1021.6 1021.6 0.0
30/02:00pm 16.7 14.0 11.8 73 2.7 SE 17 20 9 11 1022.0 1022.0 0.0
30/01:30pm 16.1 13.7 11.3 73 2.6 ESE 15 19 8 10 1022.3 1022.3 0.0
30/01:00pm 15.6 12.9 11.6 77 2.1 ESE 17 20 9 11 1022.9 1022.9 0.0
30/12:30pm 15.1 12.3 11.5 79 1.9 E 17 20 9 11 1023.5 1023.5 0.0
30/12:00pm 14.8 11.5 11.0 78 2.0 ESE 19 22 10 12 1024.0 1024.0 0.0
30/11:30am 14.6 12.7 10.6 77 2.1 ESE 11 20 6 11 1024.5 1024.5 0.0
30/11:00am 15.0 13.6 11.0 77 2.1 NNE 9 17 5 9 1024.8 1024.8 0.0
30/10:31am 13.5 11.5 10.1 80 1.8 NNE 11 15 6 8 1025.3 1025.3 0.0
30/10:30am 13.2 11.1 9.8 80 1.7 NNE 11 15 6 8 1025.3 1025.3 0.0
30/10:00am 12.3 10.6 9.9 85 1.2 N 9 13 5 7 1025.8 1025.8 0.0

Other Formats:

Comma delimited format used in spreadsheet applications
http://www.bom.gov.au/fwo/IDV60801/IDV60801.94854.axf

JavaScript Object Notation format (JSON) in row-major order
http://www.bom.gov.au/fwo/IDV60801/IDV60801.94854.json